CPX406 Details

Departure: Nashville International Airport (KBNA)
Arrival: Chicago/Rockford International Airport (KRFD) at N/A
Route: HGGRD PXV J73 GUIDO JOT
Notes:


Current Weather Information
KBNA 251053Z 00000KT 10SM BKN250 22/19 A3000 RMK AO2 SLP153 T02170189
KRFD 251054Z 11006KT 10SM OVC047 15/12 A3017 RMK AO2 SLP216 T01500117